Time;durP1;ratioP1;P1;durP2;ratioP2;P2;SDS_P1;SDS_P2;PMS_P1;PMS_P2;Temp;Humidity;BMP_temperature;BMP_pressure;BME280_temperature;BME280_humidity;BME280_pressure;Samples;Min_cycle;Max_cycle;Signal;HPM_P1;HPM_P2
2022/12/23 00:00:17;;;;;;;11.10;8.13;;;;;;;2.45;100.00;99770.56;4996005;28;20088;-74
2022/12/23 00:02:43;;;;;;;9.87;7.80;;;;;;;2.39;100.00;99768.47;4996539;28;20254;-74
2022/12/23 00:05:08;;;;;;;10.43;8.43;;;;;;;2.32;100.00;99759.47;4979222;28;20606;-74
2022/12/23 00:07:34;;;;;;;10.90;7.63;;;;;;;2.40;100.00;99770.13;4996381;28;20490;-73
2022/12/23 00:10:00;;;;;;;16.87;8.90;;;;;;;2.41;100.00;99770.00;4996191;28;20034;-73
2022/12/23 00:15:10;;;;;;;11.27;7.63;;;;;;;2.40;100.00;99767.50;4979450;28;20166;-73
2022/12/23 00:17:40;;;;;;;10.53;8.17;;;;;;;2.37;100.00;99755.47;5000525;28;20281;-72
2022/12/23 00:20:08;;;;;;;8.77;7.37;;;;;;;2.37;100.00;99767.78;5011457;28;20387;-72
2022/12/23 00:25:18;;;;;;;9.67;7.10;;;;;;;2.42;100.00;99776.09;5016360;28;20260;-74
2022/12/23 00:28:00;;;;;;;14.40;8.27;;;;;;;2.41;100.00;99764.75;4994906;28;20269;-73
2022/12/23 00:30:28;;;;;;;10.03;7.67;;;;;;;2.47;100.00;99760.75;4996161;28;20077;-73
2022/12/23 00:32:54;;;;;;;10.23;7.75;;;;;;;2.48;100.00;99746.63;4978497;28;20297;-73
2022/12/23 00:35:19;;;;;;;10.53;7.90;;;;;;;2.45;100.00;99739.84;4979244;28;20093;-73
2022/12/23 00:37:49;;;;;;;11.40;8.10;;;;;;;2.41;100.00;99751.59;4996110;28;20465;-75
2022/12/23 00:43:00;;;;;;;8.57;7.00;;;;;;;2.43;100.00;99754.94;4996153;28;20253;-72
2022/12/23 00:45:25;;;;;;;9.00;6.67;;;;;;;2.39;100.00;99753.53;4981851;28;20582;-73
2022/12/23 00:50:38;;;;;;;9.33;8.33;;;;;;;2.39;100.00;99752.72;5016050;28;20030;-73
2022/12/23 00:53:04;;;;;;;11.35;8.00;;;;;;;2.40;100.00;99757.00;4984162;28;20307;-72
2022/12/23 00:55:30;;;;;;;9.07;7.03;;;;;;;2.41;100.00;99750.78;5017318;28;20031;-72
2022/12/23 00:57:56;;;;;;;15.20;8.20;;;;;;;2.29;100.00;99747.41;4998631;28;20341;-74
2022/12/23 01:05:35;;;;;;;11.17;7.90;;;;;;;2.27;100.00;99743.25;4996862;28;20022;-73
2022/12/23 01:06:00;;;;;;;9.13;7.80;;;;;;;2.26;100.00;99758.19;4993900;28;20270;-73
2022/12/23 01:08:26;;;;;;;11.03;8.20;;;;;;;2.20;100.00;99757.91;4994836;28;20352;-73
2022/12/23 01:10:52;;;;;;;10.10;7.80;;;;;;;2.17;100.00;99754.56;4978700;28;20296;-72
2022/12/23 01:13:18;;;;;;;10.03;7.43;;;;;;;2.10;100.00;99758.72;4995773;28;20099;-72
2022/12/23 01:15:43;;;;;;;11.17;8.00;;;;;;;2.15;100.00;99756.50;4978818;28;20037;-74
2022/12/23 01:18:09;;;;;;;9.90;7.70;;;;;;;2.16;100.00;99745.03;4995640;28;20034;-74
2022/12/23 01:20:39;;;;;;;9.33;7.27;;;;;;;2.20;100.00;99752.66;4995801;28;20022;-74
2022/12/23 01:23:05;;;;;;;9.77;7.30;;;;;;;2.23;100.00;99752.38;4996125;28;20018;-73
2022/12/23 01:25:30;;;;;;;9.67;7.10;;;;;;;2.21;100.00;99735.91;4995323;28;20614;-73
2022/12/23 01:27:56;;;;;;;10.00;7.27;;;;;;;2.28;100.00;99750.16;4994982;28;20121;-74
2022/12/23 01:30:22;;;;;;;8.70;7.00;;;;;;;2.25;100.00;99738.13;4960802;28;20033;-73
2022/12/23 01:32:47;;;;;;;8.60;6.70;;;;;;;2.23;100.00;99729.56;4994193;28;20129;-73
2022/12/23 01:35:13;;;;;;;10.17;7.17;;;;;;;2.25;100.00;99734.69;4993983;28;20347;-73
2022/12/23 01:37:39;;;;;;;8.77;6.77;;;;;;;2.23;100.00;99729.56;4993795;28;20054;-73
2022/12/23 01:40:06;;;;;;;9.10;7.60;;;;;;;2.25;100.00;99714.50;4976684;28;20497;-73
2022/12/23 01:42:44;;;;;;;8.63;6.07;;;;;;;2.14;100.00;99688.34;4993945;28;20413;-71
2022/12/23 01:45:18;;;;;;;8.50;6.40;;;;;;;2.38;100.00;99722.13;4993968;28;20265;-74
2022/12/23 01:48:12;;;;;;;8.87;6.30;;;;;;;2.41;100.00;99713.97;5003789;28;20264;-73
2022/12/23 01:50:52;;;;;;;8.40;7.10;;;;;;;2.38;100.00;99716.88;5012505;28;20270;-70
2022/12/23 01:53:32;;;;;;;8.80;6.50;;;;;;;2.36;100.00;99721.44;5004745;28;20289;-73
2022/12/23 01:56:18;;;;;;;9.53;7.60;;;;;;;2.29;100.00;99715.06;4995437;28;20381;-74
2022/12/23 01:58:57;;;;;;;8.03;6.57;;;;;;;2.32;100.00;99727.94;4994494;28;20272;-74
2022/12/23 02:04:12;;;;;;;8.13;7.07;;;;;;;2.30;100.00;99714.09;4993721;28;20141;-72
2022/12/23 02:09:31;;;;;;;;;;;;;;;2.39;100.00;99726.44;4994643;28;20273;-73
2022/12/23 02:12:15;;;;;;;10.67;7.53;;;;;;;2.38;100.00;99717.72;4994962;28;20419;-73
2022/12/23 02:17:58;;;;;;;9.97;7.27;;;;;;;2.47;100.00;99721.31;4994360;28;20301;-73
2022/12/23 02:20:36;;;;;;;12.27;7.20;;;;;;;2.44;100.00;99718.97;4994974;28;20261;-74
2022/12/23 02:23:07;;;;;;;11.33;8.00;;;;;;;2.42;100.00;99716.47;4994673;28;20274;-72
2022/12/23 02:25:35;;;;;;;13.13;8.03;;;;;;;2.44;100.00;99714.53;4995401;28;20261;-73
2022/12/23 02:28:39;;;;;;;10.70;7.20;;;;;;;2.48;100.00;99720.34;4994855;28;20296;-74
2022/12/23 02:31:15;;;;;;;9.90;7.30;;;;;;;2.42;100.00;99702.50;4993087;28;20031;-72
2022/12/23 02:33:48;;;;;;;13.77;8.53;;;;;;;2.49;100.00;99712.31;4992815;28;20288;-73
2022/12/23 02:36:27;;;;;;;12.40;8.87;;;;;;;2.51;100.00;99704.31;4993169;28;20254;-73
2022/12/23 02:39:01;;;;;;;12.77;8.57;;;;;;;2.41;100.00;99704.31;4993158;28;20274;-72
2022/12/23 02:41:37;;;;;;;12.63;7.97;;;;;;;2.43;100.00;99710.25;4992898;28;20665;-73
2022/12/23 02:44:09;;;;;;;10.80;8.80;;;;;;;2.40;100.00;99707.91;4992990;28;20249;-74
2022/12/23 02:46:44;;;;;;;12.97;8.73;;;;;;;2.39;100.00;99710.66;4975574;28;20293;-73
2022/12/23 02:49:15;;;;;;;14.67;8.80;;;;;;;2.40;100.00;99713.16;4993161;28;20266;-75
2022/12/23 02:51:53;;;;;;;16.33;9.60;;;;;;;2.39;100.00;99710.66;4992777;28;20253;-74
2022/12/23 02:54:27;;;;;;;13.83;8.63;;;;;;;2.40;100.00;99712.31;4992881;28;20602;-74
2022/12/23 02:56:55;;;;;;;12.20;9.07;;;;;;;2.41;100.00;99709.56;4992916;28;20289;-72
2022/12/23 02:59:25;;;;;;;12.43;9.30;;;;;;;2.44;100.00;99708.44;4993048;28;20258;-73
2022/12/23 03:01:53;;;;;;;15.07;9.40;;;;;;;2.44;100.00;99687.44;4993127;28;20257;-73
2022/12/23 03:04:19;;;;;;;18.20;9.83;;;;;;;2.24;100.00;99659.47;4992732;28;20261;-73
2022/12/23 03:06:52;;;;;;;12.80;9.03;;;;;;;2.43;100.00;99691.84;4992621;28;20268;-72
2022/12/23 03:10:07;;;;;;;15.43;9.67;;;;;;;2.44;100.00;99683.00;4992448;28;20034;-72
2022/12/23 03:13:09;;;;;;;13.27;8.83;;;;;;;2.52;100.00;99690.19;4992864;28;20266;-74
2022/12/23 03:16:00;;;;;;;13.73;8.73;;;;;;;2.45;100.00;99686.47;4993261;28;20288;-72
2022/12/23 03:18:50;;;;;;;15.00;9.17;;;;;;;2.35;100.00;99669.88;4967442;28;20269;-73
2022/12/23 03:21:24;;;;;;;14.63;9.47;;;;;;;2.42;100.00;99677.06;4993156;28;20256;-73
2022/12/23 03:24:05;;;;;;;11.83;8.40;;;;;;;2.55;100.00;99678.56;4992793;28;20312;-74
2022/12/23 03:27:07;;;;;;;15.07;9.50;;;;;;;2.59;100.00;99675.53;4993039;28;20266;-73
2022/12/23 03:30:05;;;;;;;8.70;7.07;;;;;;;2.50;100.00;99671.09;4995599;28;20280;-72
2022/12/23 03:33:11;;;;;;;10.90;8.43;;;;;;;2.44;100.00;99676.91;4974255;28;20307;-73
2022/12/23 03:35:42;;;;;;;10.30;8.23;;;;;;;2.40;100.00;99680.78;4996879;28;20538;-74
2022/12/23 03:38:12;;;;;;;13.43;8.97;;;;;;;2.35;100.00;99677.75;4996892;28;20277;-74
2022/12/23 03:40:45;;;;;;;11.07;7.90;;;;;;;2.30;100.00;99680.75;4996860;28;20277;-75
2022/12/23 03:43:18;;;;;;;11.80;8.30;;;;;;;2.28;100.00;99671.34;4996359;28;20254;-75
2022/12/23 03:45:51;;;;;;;9.80;8.00;;;;;;;2.29;100.00;99662.50;4996454;28;20257;-74
2022/12/23 03:48:22;;;;;;;12.03;8.13;;;;;;;2.36;100.00;99666.28;4996333;28;20249;-76
2022/12/23 03:50:53;;;;;;;10.27;8.73;;;;;;;2.34;100.00;99655.06;4996238;28;20261;-74
2022/12/23 03:53:27;;;;;;;11.97;8.90;;;;;;;2.33;100.00;99654.25;4996111;28;20289;-75
2022/12/23 03:56:01;;;;;;;12.30;7.80;;;;;;;2.40;100.00;99649.25;4996406;28;20734;-75
2022/12/23 03:58:37;;;;;;;9.57;7.77;;;;;;;2.32;100.00;99641.25;4995971;28;20380;-76
2022/12/23 04:01:18;;;;;;;11.20;8.90;;;;;;;2.26;100.00;99652.28;4995892;28;20252;-74
2022/12/23 04:03:51;;;;;;;9.17;7.83;;;;;;;2.23;100.00;99642.03;4996015;28;20261;-72
2022/12/23 04:06:19;;;;;;;10.73;8.20;;;;;;;2.17;100.00;99639.00;4996161;28;20257;-73
2022/12/23 04:08:46;;;;;;;11.93;8.33;;;;;;;2.13;100.00;99640.25;4995818;28;20261;-73
2022/12/23 04:11:13;;;;;;;12.87;8.73;;;;;;;2.15;100.00;99638.31;4996665;28;20721;-74
2022/12/23 04:13:38;;;;;;;13.43;7.90;;;;;;;2.10;100.00;99635.25;4997250;28;20282;-73
2022/12/23 04:16:05;;;;;;;11.17;8.20;;;;;;;2.11;100.00;99633.47;4995623;28;20593;-73
2022/12/23 04:18:30;;;;;;;11.17;8.33;;;;;;;2.02;100.00;99629.84;4995918;28;20030;-74
2022/12/23 04:20:56;;;;;;;10.47;7.93;;;;;;;1.99;100.00;99630.13;4996298;28;20263;-75
2022/12/23 04:23:21;;;;;;;7.50;5.97;;;;;;;2.01;100.00;99636.06;4996045;28;20030;-76
2022/12/23 04:25:47;;;;;;;8.20;6.70;;;;;;;1.78;100.00;99600.53;4998575;28;20034;-76
2022/12/23 04:28:12;;;;;;;12.13;9.00;;;;;;;1.97;100.00;99626.78;4995820;28;20033;-73
2022/12/23 04:30:38;;;;;;;10.73;7.73;;;;;;;2.05;100.00;99639.28;4995736;28;20490;-73
2022/12/23 04:33:04;;;;;;;12.77;8.97;;;;;;;2.07;100.00;99632.91;4996714;28;20030;-72
2022/12/23 04:35:29;;;;;;;13.80;9.70;;;;;;;2.02;100.00;99632.47;4995496;28;20027;-76
2022/12/23 04:37:55;;;;;;;13.60;8.47;;;;;;;1.99;100.00;99624.03;4995401;28;20050;-74
2022/12/23 04:40:21;;;;;;;9.33;8.00;;;;;;;1.98;100.00;99628.44;4995948;28;20039;-74
2022/12/23 04:42:46;;;;;;;10.90;8.47;;;;;;;1.99;100.00;99638.00;5009164;28;20196;-74
2022/12/23 04:45:12;;;;;;;10.37;8.83;;;;;;;1.94;100.00;99631.50;4998406;28;20030;-75
2022/12/23 04:47:37;;;;;;;10.60;7.83;;;;;;;1.92;100.00;99628.16;4999610;28;20034;-72
2022/12/23 04:50:04;;;;;;;9.23;7.33;;;;;;;1.83;100.00;99617.53;5002605;28;20033;-73
2022/12/23 04:52:29;;;;;;;9.57;7.93;;;;;;;1.82;100.00;99618.50;4979038;28;20092;-73
2022/12/23 04:54:54;;;;;;;9.33;7.23;;;;;;;1.85;100.00;99625.25;4998149;28;20286;-74
2022/12/23 04:57:20;;;;;;;8.53;6.77;;;;;;;1.88;100.00;99622.38;4997808;28;20117;-75
2022/12/23 04:59:46;;;;;;;8.97;7.37;;;;;;;1.83;100.00;99625.41;4996788;28;20180;-75
2022/12/23 05:02:11;;;;;;;8.63;7.03;;;;;;;1.84;100.00;99616.56;4997866;28;20430;-74
2022/12/23 05:04:37;;;;;;;7.53;6.60;;;;;;;1.80;100.00;99606.47;5006912;28;20052;-72
2022/12/23 05:07:02;;;;;;;9.77;7.33;;;;;;;1.85;100.00;99612.97;5002789;28;20096;-73
2022/12/23 05:09:28;;;;;;;9.10;6.73;;;;;;;1.89;100.00;99608.28;5007675;28;20022;-71
2022/12/23 05:11:54;;;;;;;10.33;6.50;;;;;;;1.88;100.00;99605.78;4990176;28;20030;-73
2022/12/23 05:14:19;;;;;;;8.77;7.03;;;;;;;1.84;100.00;99611.31;4986926;28;20064;-73
2022/12/23 05:16:45;;;;;;;9.63;6.83;;;;;;;1.93;100.00;99606.19;4985099;28;20015;-73
2022/12/23 05:19:10;;;;;;;9.53;7.03;;;;;;;1.89;100.00;99597.75;4962524;28;20493;-75
2022/12/23 05:21:36;;;;;;;14.17;7.20;;;;;;;1.82;100.00;99602.75;4994866;28;20798;-73
2022/12/23 05:24:02;;;;;;;11.17;7.53;;;;;;;1.68;100.00;99583.91;4994865;28;20525;-73
2022/12/23 05:26:27;;;;;;;8.80;7.47;;;;;;;1.76;100.00;99597.19;4994790;28;20027;-73
2022/12/23 05:28:53;;;;;;;13.27;6.90;;;;;;;1.81;100.00;99595.81;5011123;28;20025;-74
2022/12/23 05:31:19;;;;;;;9.87;7.47;;;;;;;1.75;100.00;99585.03;4998375;28;20077;-73
2022/12/23 05:33:44;;;;;;;13.60;8.10;;;;;;;1.72;100.00;99590.53;5008177;28;20629;-74
2022/12/23 05:36:11;;;;;;;12.67;8.70;;;;;;;1.61;100.00;99595.91;4997981;28;20030;-72
2022/12/23 05:38:39;;;;;;;12.77;8.13;;;;;;;1.58;100.00;99589.13;4994815;28;20442;-73
2022/12/23 05:41:05;;;;;;;13.90;9.73;;;;;;;1.59;100.00;99593.41;4994067;28;20761;-73
2022/12/23 05:43:30;;;;;;;11.80;9.07;;;;;;;1.65;100.00;99589.41;4994380;28;20029;-72
2022/12/23 05:45:56;;;;;;;11.20;9.27;;;;;;;1.66;100.00;99591.06;4994123;28;20031;-74
2022/12/23 05:48:22;;;;;;;13.80;10.73;;;;;;;1.24;100.00;99539.59;4995725;28;20068;-74
2022/12/23 05:50:52;;;;;;;15.40;11.33;;;;;;;1.54;100.00;99593.00;4994236;28;20257;-73
2022/12/23 05:53:19;;;;;;;16.00;10.57;;;;;;;1.59;100.00;99589.97;4976869;28;20040;-74
2022/12/23 05:55:45;;;;;;;15.50;12.03;;;;;;;1.71;100.00;99588.88;4995015;28;20274;-73
2022/12/23 05:58:14;;;;;;;16.07;12.57;;;;;;;1.82;100.00;99596.66;4998465;28;20367;-72
2022/12/23 06:00:39;;;;;;;14.63;11.53;;;;;;;1.86;100.00;99588.38;4999823;28;20823;-75
2022/12/23 06:03:05;;;;;;;17.17;11.10;;;;;;;1.88;100.00;99588.22;4994642;28;20026;-72
2022/12/23 06:05:30;;;;;;;15.23;11.73;;;;;;;1.89;100.00;99584.63;4978665;28;20161;-72
2022/12/23 06:07:56;;;;;;;16.07;10.63;;;;;;;1.83;100.00;99574.69;4980700;28;20374;-73
2022/12/23 06:10:24;;;;;;;14.97;10.23;;;;;;;1.83;100.00;99586.03;5008207;28;20026;-73
2022/12/23 06:12:50;;;;;;;15.20;10.95;;;;;;;1.65;100.00;99573.69;5015065;28;20026;-73
2022/12/23 06:15:15;;;;;;;15.17;11.20;;;;;;;1.61;100.00;99583.63;5016390;28;20070;-71
2022/12/23 06:17:44;;;;;;;14.47;10.60;;;;;;;1.64;100.00;99582.50;5015277;28;20045;-72
2022/12/23 06:20:10;;;;;;;;;;;;;;;1.75;100.00;99582.41;4997453;28;20057;-74
2022/12/23 06:22:35;;;;;;;17.03;10.20;;;;;;;1.63;100.00;99571.19;5014660;28;19909;-74
2022/12/23 06:25:01;;;;;;;14.53;11.43;;;;;;;1.59;100.00;99576.84;4997676;28;20036;-72
2022/12/23 06:27:28;;;;;;;15.07;9.97;;;;;;;1.70;100.00;99588.03;4996024;28;20319;-72
2022/12/23 06:29:54;;;;;;;13.80;10.60;;;;;;;1.75;100.00;99582.41;4977119;28;20262;-74
2022/12/23 06:32:19;;;;;;;16.73;11.43;;;;;;;1.49;100.00;99540.91;4993831;28;20030;-72
2022/12/23 06:34:45;;;;;;;17.23;11.87;;;;;;;1.69;100.00;99561.94;4993584;28;20037;-71
2022/12/23 06:37:12;;;;;;;14.20;10.00;;;;;;;1.83;100.00;99586.03;4993130;28;20129;-71
2022/12/23 06:39:37;;;;;;;15.23;10.40;;;;;;;1.86;100.00;99593.63;4992886;28;20133;-70
2022/12/23 06:42:03;;;;;;;11.87;9.00;;;;;;;1.88;100.00;99590.03;4993497;28;20703;-73
2022/12/23 06:44:28;;;;;;;17.37;10.37;;;;;;;1.89;100.00;99592.53;4994542;28;20027;-72
2022/12/23 06:46:57;;;;;;;14.70;10.10;;;;;;;1.85;100.00;99585.88;4975685;28;20153;-72
2022/12/23 06:49:23;;;;;;;12.33;9.60;;;;;;;1.79;100.00;99575.94;4958540;28;20585;-72
2022/12/23 06:51:49;;;;;;;16.80;9.77;;;;;;;1.75;100.00;99571.91;4958572;28;20305;-75
2022/12/23 06:54:14;;;;;;;22.37;10.60;;;;;;;1.76;100.00;99576.19;4974614;28;20155;-72
2022/12/23 06:56:40;;;;;;;17.77;10.17;;;;;;;1.65;100.00;99558.75;4991407;28;20026;-74
2022/12/23 06:59:08;;;;;;;17.37;10.00;;;;;;;1.53;100.00;99541.47;4990669;28;20030;-72
2022/12/23 07:01:36;;;;;;;14.30;9.57;;;;;;;1.64;100.00;99545.78;4959118;28;20389;-70
2022/12/23 07:04:02;;;;;;;14.15;10.63;;;;;;;1.79;100.00;99579.38;4977507;28;20026;-73
2022/12/23 07:06:28;;;;;;;16.03;9.37;;;;;;;1.73;100.00;99576.44;4996526;28;20041;-69
2022/12/23 07:08:53;;;;;;;13.53;8.87;;;;;;;1.74;100.00;99568.47;4996588;28;20038;-70
2022/12/23 07:11:19;;;;;;;16.50;11.47;;;;;;;1.85;100.00;99572.75;4996660;28;20510;-72
2022/12/23 07:13:45;;;;;;;16.70;11.70;;;;;;;1.85;100.00;99563.09;4996499;28;20410;-73
2022/12/23 07:16:10;;;;;;;13.93;9.23;;;;;;;1.82;100.00;99562.53;4996533;28;20034;-71
2022/12/23 07:18:36;;;;;;;14.73;9.57;;;;;;;1.72;100.00;99552.00;4979466;28;20279;-74
2022/12/23 07:21:04;;;;;;;13.73;9.10;;;;;;;1.72;100.00;99559.03;4996297;28;20058;-74
2022/12/23 07:23:39;;;;;;;14.15;9.35;;;;;;;1.74;100.00;99554.50;4996804;28;20068;-78
2022/12/23 07:26:04;;;;;;;13.63;10.00;;;;;;;1.81;100.00;99548.56;4996849;28;20033;-73
2022/12/23 07:28:30;;;;;;;12.17;9.73;;;;;;;1.83;100.00;99551.06;5003231;28;20325;-71
2022/12/23 07:30:58;;;;;;;14.67;10.00;;;;;;;1.85;100.00;99554.38;5018357;28;20030;-75
2022/12/23 07:33:24;;;;;;;12.70;10.00;;;;;;;1.79;100.00;99537.38;5009201;28;20030;-71
2022/12/23 07:35:49;;;;;;;14.57;10.33;;;;;;;1.94;100.00;99552.72;5000066;28;20030;-71
2022/12/23 07:38:16;;;;;;;12.67;9.53;;;;;;;1.83;100.00;99540.56;4997663;28;20050;-72
2022/12/23 07:40:41;;;;;;;18.00;10.60;;;;;;;1.70;100.00;99525.06;4996614;28;20057;-72
2022/12/23 07:43:08;;;;;;;14.27;9.90;;;;;;;1.80;100.00;99553.97;4996439;28;20300;-70
2022/12/23 07:45:33;;;;;;;16.23;9.87;;;;;;;1.79;100.00;99547.88;4978744;28;20093;-70
2022/12/23 07:48:00;;;;;;;14.33;9.53;;;;;;;1.80;100.00;99540.84;4996511;28;20733;-71
2022/12/23 07:50:26;;;;;;;12.87;9.80;;;;;;;1.72;100.00;99538.88;4995676;28;20033;-70
2022/12/23 07:52:52;;;;;;;17.50;11.00;;;;;;;1.62;100.00;99542.44;4996590;28;20294;-69
2022/12/23 07:55:19;;;;;;;14.20;9.40;;;;;;;1.66;100.00;99528.91;4995741;28;20296;-71
2022/12/23 07:57:49;;;;;;;16.73;9.83;;;;;;;1.79;100.00;99533.94;4995757;28;20741;-71
2022/12/23 08:00:15;;;;;;;15.13;10.50;;;;;;;1.84;100.00;99537.78;4995739;28;20265;-70
2022/12/23 08:02:41;;;;;;;11.63;9.13;;;;;;;1.94;100.00;99536.97;4995612;28;20320;-70
2022/12/23 08:05:08;;;;;;;14.23;11.10;;;;;;;1.97;100.00;99531.44;4995857;28;20269;-70
2022/12/23 08:07:34;;;;;;;16.37;10.27;;;;;;;1.98;100.00;99525.22;4995746;28;20258;-70
2022/12/23 08:09:59;;;;;;;11.47;9.87;;;;;;;1.99;100.00;99526.88;4994124;28;20253;-69
2022/12/23 08:12:25;;;;;;;15.43;10.70;;;;;;;1.97;100.00;99521.75;4982330;28;20022;-69
2022/12/23 08:14:51;;;;;;;14.37;10.00;;;;;;;2.03;100.00;99515.97;5017244;28;20143;-70
2022/12/23 08:17:20;;;;;;;14.10;10.60;;;;;;;2.06;100.00;99514.88;4997260;28;20030;-71
2022/12/23 08:19:46;;;;;;;16.25;9.93;;;;;;;2.06;100.00;99518.31;4964480;28;20266;-71
2022/12/23 08:22:12;;;;;;;15.20;9.93;;;;;;;1.90;100.00;99499.66;4977101;28;20037;-70
2022/12/23 08:24:37;;;;;;;16.53;11.47;;;;;;;1.95;100.00;99513.19;4976607;28;20262;-70
2022/12/23 08:27:03;;;;;;;16.73;10.50;;;;;;;1.88;100.00;99512.09;4976006;28;20379;-70
2022/12/23 08:29:28;;;;;;;15.87;10.33;;;;;;;1.88;100.00;99495.50;4958353;28;20023;-70
2022/12/23 08:31:54;;;;;;;15.57;10.87;;;;;;;2.06;100.00;99513.06;4975641;28;20486;-71
2022/12/23 08:34:20;;;;;;;13.67;10.30;;;;;;;1.99;100.00;99493.56;4976178;28;20138;-71
2022/12/23 08:36:47;;;;;;;19.87;10.80;;;;;;;2.10;100.00;99501.31;4976026;28;20829;-72
2022/12/23 08:39:14;;;;;;;16.38;11.77;;;;;;;2.08;100.00;99497.19;4975702;28;20043;-71
2022/12/23 08:41:45;;;;;;;17.73;11.20;;;;;;;2.17;100.00;99509.47;4975579;28;20542;-71
2022/12/23 08:44:12;;;;;;;19.10;10.93;;;;;;;2.15;100.00;99504.34;4975798;28;20027;-71
2022/12/23 08:46:37;;;;;;;15.40;12.13;;;;;;;2.19;100.00;99499.66;4975479;28;20262;-70
2022/12/23 08:49:04;;;;;;;19.80;11.47;;;;;;;2.18;100.00;99498.81;4975355;28;20313;-71
2022/12/23 08:51:30;;;;;;;18.20;12.10;;;;;;;2.15;100.00;99496.47;4975453;28;20034;-70
2022/12/23 08:53:58;;;;;;;24.63;13.50;;;;;;;2.06;100.00;99491.25;4975416;28;20673;-73
2022/12/23 08:56:25;;;;;;;20.00;13.40;;;;;;;1.89;100.00;99471.75;4975425;28;20027;-71
2022/12/23 08:58:53;;;;;;;18.37;11.47;;;;;;;1.99;100.00;99488.31;4958140;28;20271;-70
2022/12/23 09:01:20;;;;;;;21.30;12.10;;;;;;;2.01;100.00;99499.50;4974814;28;20365;-71
2022/12/23 09:03:46;;;;;;;19.13;12.20;;;;;;;2.05;100.00;99487.78;4975442;28;20310;-71
2022/12/23 09:06:15;;;;;;;30.23;14.97;;;;;;;2.07;100.00;99485.03;4975399;28;20258;-71
2022/12/23 09:08:41;;;;;;;23.63;13.45;;;;;;;2.18;100.00;99490.94;4979080;28;20371;-71
2022/12/23 09:11:16;;;;;;;27.03;14.40;;;;;;;2.26;100.00;99484.16;4977565;28;20037;-70
2022/12/23 09:13:42;;;;;;;30.27;14.20;;;;;;;2.22;100.00;99480.16;4977360;28;20670;-70
2022/12/23 09:16:08;;;;;;;23.20;13.47;;;;;;;2.23;100.00;99472.13;4975346;28;20590;-70
2022/12/23 09:18:34;;;;;;;15.70;8.30;;;;;;;2.19;100.00;99473.38;4975715;28;20361;-70
2022/12/23 09:21:03;;;;;;;13.80;8.67;;;;;;;2.18;100.00;99472.56;4976245;28;20778;-70
2022/12/23 09:23:29;;;;;;;16.55;10.60;;;;;;;2.15;100.00;99457.06;4975562;28;20606;-69
2022/12/23 09:25:55;;;;;;;18.33;10.43;;;;;;;2.12;100.00;99462.63;4977365;28;20030;-74
2022/12/23 09:28:22;;;;;;;16.43;10.20;;;;;;;2.10;100.00;99459.31;4974806;28;20254;-72
2022/12/23 09:30:51;;;;;;;21.77;10.03;;;;;;;2.21;100.00;99454.84;4975523;28;20360;-69
2022/12/23 09:33:18;;;;;;;16.67;9.03;;;;;;;2.31;100.00;99460.91;4958095;28;20305;-70
2022/12/23 09:35:44;;;;;;;12.77;8.83;;;;;;;2.34;100.00;99453.59;4957799;28;20277;-72
2022/12/23 09:38:12;;;;;;;20.03;9.30;;;;;;;2.35;100.00;99451.78;4974771;28;20290;-71
2022/12/23 09:40:41;;;;;;;;;;;;;;;2.43;100.00;99449.28;4975891;28;20034;-69
2022/12/23 09:43:46;;;;;;;16.80;10.52;;;;;;;2.45;100.00;99453.41;4974225;28;20346;-70
2022/12/23 09:46:19;;;;;;;17.43;10.73;;;;;;;2.36;100.00;99445.56;4974306;28;20460;-70
2022/12/23 09:48:51;;;;;;;16.07;11.20;;;;;;;2.28;100.00;99437.53;4974161;28;20258;-73
2022/12/23 09:51:20;;;;;;;18.33;9.67;;;;;;;2.32;100.00;99442.41;4974652;28;20262;-71
2022/12/23 09:54:24;;;;;;;15.57;10.90;;;;;;;2.35;100.00;99443.91;4974289;28;20294;-72
2022/12/23 09:56:54;;;;;;;14.97;10.33;;;;;;;2.38;100.00;99446.25;4974576;28;20274;-70
2022/12/23 10:00:03;;;;;;;16.17;10.27;;;;;;;2.36;100.00;99432.44;4974806;28;20322;-70
2022/12/23 10:02:39;;;;;;;16.73;10.60;;;;;;;2.41;100.00;99452.06;4944703;28;20305;-72
2022/12/23 10:05:34;;;;;;;19.10;10.20;;;;;;;2.30;100.00;99427.72;4975403;28;20332;-70
2022/12/23 10:08:29;;;;;;;18.63;9.97;;;;;;;2.33;100.00;99443.22;4993530;28;20264;-70
2022/12/23 10:11:36;;;;;;;12.93;9.93;;;;;;;2.25;100.00;99429.94;4975994;28;20265;-70
2022/12/23 10:14:02;;;;;;;15.38;9.05;;;;;;;2.24;100.00;99433.56;4993037;28;20284;-69
2022/12/23 10:16:59;;;;;;;13.73;8.60;;;;;;;2.18;100.00;99440.19;4993134;28;20046;-70
2022/12/23 10:19:31;;;;;;;14.13;8.67;;;;;;;2.14;100.00;99423.91;4992683;28;20041;-74
2022/12/23 10:22:05;;;;;;;12.57;8.30;;;;;;;2.11;100.00;99439.94;4992810;28;20261;-70
2022/12/23 10:24:43;;;;;;;13.70;9.20;;;;;;;1.97;100.00;99421.97;4993082;28;20262;-73
2022/12/23 10:27:24;;;;;;;12.73;8.18;;;;;;;2.06;100.00;99436.91;4976679;28;20408;-71
2022/12/23 10:29:50;;;;;;;13.43;9.17;;;;;;;2.14;100.00;99431.78;4997187;28;20081;-70
2022/12/23 10:32:37;;;;;;;13.70;10.17;;;;;;;2.24;100.00;99438.81;4994147;28;20355;-70
2022/12/23 10:35:31;;;;;;;12.20;9.07;;;;;;;2.27;100.00;99428.00;4997578;28;20307;-71
2022/12/23 10:38:09;;;;;;;10.77;7.90;;;;;;;2.26;100.00;99423.72;5000918;28;20301;-70
2022/12/23 10:40:59;;;;;;;16.13;10.13;;;;;;;2.24;100.00;99428.28;4984502;28;20276;-71
2022/12/23 10:43:43;;;;;;;12.40;8.53;;;;;;;2.31;100.00;99424.13;4979946;28;20121;-69
2022/12/23 10:46:16;;;;;;;10.60;8.20;;;;;;;2.30;100.00;99419.84;5001211;28;20253;-68
2022/12/23 10:49:00;;;;;;;11.33;8.57;;;;;;;2.28;100.00;99419.16;4975552;28;20266;-70
2022/12/23 10:51:37;;;;;;;13.40;8.83;;;;;;;2.23;100.00;99426.66;4998349;28;20268;-73
2022/12/23 10:54:18;;;;;;;10.73;7.77;;;;;;;2.22;100.00;99424.97;4984331;28;20384;-72
2022/12/23 10:56:44;;;;;;;9.50;7.17;;;;;;;2.17;100.00;99409.66;4970481;28;20262;-71
2022/12/23 10:59:14;;;;;;;8.70;7.03;;;;;;;2.16;100.00;99410.63;4961398;28;20269;-68
2022/12/23 11:01:42;;;;;;;8.10;6.57;;;;;;;2.25;100.00;99425.53;4992020;28;20031;-67
2022/12/23 11:04:13;;;;;;;10.10;7.47;;;;;;;2.12;100.00;99406.63;4993592;28;20269;-67
2022/12/23 11:06:42;;;;;;;9.07;7.20;;;;;;;2.11;100.00;99424.19;4999295;28;20045;-70
2022/12/23 11:09:21;;;;;;;7.77;6.10;;;;;;;2.03;100.00;99421.44;4987539;28;20297;-69
2022/12/23 11:11:55;;;;;;;9.30;5.22;;;;;;;2.08;100.00;99429.72;4993835;28;20733;-70
2022/12/23 11:14:51;;;;;;;8.97;5.97;;;;;;;2.10;100.00;99432.22;4982916;28;20394;-70
2022/12/23 11:17:21;;;;;;;12.60;7.60;;;;;;;2.00;100.00;99434.00;4966614;28;20274;-71
2022/12/23 11:20:04;;;;;;;9.17;6.70;;;;;;;1.94;100.00;99432.78;4955377;28;20262;-72
2022/12/23 11:22:30;;;;;;;10.27;6.47;;;;;;;1.92;100.00;99429.47;4954747;28;20345;-69
2022/12/23 11:25:18;;;;;;;8.27;6.80;;;;;;;1.85;100.00;99415.25;4972964;28;20680;-69
2022/12/23 11:27:45;;;;;;;8.83;7.43;;;;;;;1.98;100.00;99431.50;4973139;28;20062;-68
2022/12/23 11:30:17;;;;;;;13.03;7.07;;;;;;;2.03;100.00;99429.31;4972899;28;20349;-70
2022/12/23 11:32:43;;;;;;;7.73;6.10;;;;;;;2.09;100.00;99438.44;4973340;28;20312;-68
2022/12/23 11:35:32;;;;;;;10.83;7.57;;;;;;;2.05;100.00;99435.25;4972625;28;20285;-69
2022/12/23 11:37:59;;;;;;;10.13;6.63;;;;;;;2.02;100.00;99435.50;4986310;28;20277;-70
2022/12/23 11:40:34;;;;;;;8.70;6.67;;;;;;;2.05;100.00;99451.03;4992333;28;20034;-68
2022/12/23 11:43:13;;;;;;;10.13;7.23;;;;;;;1.99;100.00;99435.78;4974783;28;20270;-69
2022/12/23 11:45:38;;;;;;;;;;;;;;;2.17;100.00;99444.63;4993152;28;20246;-68
2022/12/23 11:48:05;;;;;;;10.10;6.70;;;;;;;2.15;100.00;99445.75;4978620;28;19957;-71
2022/12/23 11:50:36;;;;;;;10.33;7.53;;;;;;;2.15;100.00;99441.31;4996311;28;20064;-70
2022/12/23 11:53:11;;;;;;;9.20;7.23;;;;;;;2.15;100.00;99448.38;4978164;28;20273;-72
2022/12/23 11:55:45;;;;;;;9.43;6.63;;;;;;;2.14;100.00;99436.22;4995937;28;20258;-72
2022/12/23 11:58:18;;;;;;;12.47;7.07;;;;;;;2.18;100.00;99445.47;4977631;28;20301;-71
2022/12/23 12:00:52;;;;;;;10.00;6.77;;;;;;;2.16;100.00;99448.22;4978413;28;20658;-69
2022/12/23 12:03:22;;;;;;;11.40;6.67;;;;;;;2.13;100.00;99447.69;4995758;28;20791;-68
2022/12/23 12:05:56;;;;;;;10.70;7.67;;;;;;;2.11;100.00;99453.06;4995787;28;20759;-72